This is the latest recevied weather packets stored in our database for station/object HK4K-15. If no packets are shown the sender has not sent any weather packets the latest 10 day(s).
| Time | Temp. | Humidity | Pressure | Rain* | Wind** | Luminosity | Snow |
|---|---|---|---|---|---|---|---|
| 1788473455 | 21.67° C | 59% | 1010 hPa | 0 mm | - | - | - |
| 1788472434 | 22.22° C | 59% | 1010 hPa | 0 mm | - | - | - |
| 1788467332 | 23.89° C | 56% | 1010 hPa | 0 mm | - | - | - |
| 1788466312 | 23.89° C | 56% | 1010 hPa | 0 mm | - | - | - |
| 1788464271 | 24.44° C | 54% | 1010 hPa | 0 mm | - | - | - |
| 1788451004 | 23.33° C | 63% | 1014 hPa | 0 mm | - | - | - |
| 1788449984 | 23.33° C | 62% | 1014 hPa | 0 mm | - | - | - |
| 1788444876 | 21.67° C | 70% | 1016 hPa | 0 mm | - | - | - |
| 1788441814 | 18.89° C | 78% | 1016 hPa | 0 mm | - | - | - |
| 1788436712 | 14.44° C | 98% | 1016 hPa | 0 mm | - | - | - |
| 1788434671 | 14.44° C | 97% | 1016 hPa | 0 mm | - | - | - |
| 1788433650 | 14.44° C | 97% | 1016 hPa | 0 mm | - | - | - |
| 1788431610 | 14.44° C | 97% | 1016 hPa | 0 mm | - | - | - |
| 1788430589 | 15° C | 97% | 1016 hPa | 0 mm | - | - | - |
| 1788429568 | 15.56° C | 97% | 1016 hPa | 0 mm | - | - | - |
| 1788428548 | 15.56° C | 97% | 1016 hPa | 0 mm | - | - | - |
| 1788427527 | 15.56° C | 97% | 1016 hPa | 0 mm | - | - | - |
| 1788426507 | 15.56° C | 97% | 1016 hPa | 0 mm | - | - | - |
| 1788424466 | 15.56° C | 97% | 1016 hPa | 0 mm | - | - | - |
| 1788423445 | 15.56° C | 97% | 1016 hPa | 0 mm | - | - | - |
| 1788422425 | 15.56° C | 97% | 1016 hPa | 0 mm | - | - | - |
| 1788421405 | 15.56° C | 96% | 1016 hPa | 0 mm | - | - | - |
| 1788420384 | 15.56° C | 95% | 1016 hPa | 0 mm | - | - | - |
| 1788419363 | 16.11° C | 95% | 1016 hPa | 0 mm | - | - | - |
| 1788418343 | 16.67° C | 94% | 1016 hPa | 0 mm | - | - | - |
* Rain latest hour (hover to see other rain measurements)
** Current wind speed in m/s (hover to see current wind gust speed)